sensor_id;sensor_type;location;lat;lon;timestamp;P1;durP1;ratioP1;P2;durP2;ratioP2
22764;SDS011;11549;50.852;3.816;2022-11-04T00:01:50;11.25;;;3.75;;
22764;SDS011;11549;50.852;3.816;2022-11-04T00:04:21;9.10;;;3.67;;
22764;SDS011;11549;50.852;3.816;2022-11-04T00:06:51;7.70;;;3.70;;
22764;SDS011;11549;50.852;3.816;2022-11-04T00:09:21;8.13;;;3.42;;
22764;SDS011;11549;50.852;3.816;2022-11-04T00:11:50;8.55;;;3.45;;
22764;SDS011;11549;50.852;3.816;2022-11-04T00:14:37;8.30;;;3.10;;
22764;SDS011;11549;50.852;3.816;2022-11-04T00:17:05;9.65;;;3.55;;
22764;SDS011;11549;50.852;3.816;2022-11-04T00:19:49;10.32;;;3.42;;
22764;SDS011;11549;50.852;3.816;2022-11-04T00:22:36;8.52;;;3.22;;
22764;SDS011;11549;50.852;3.816;2022-11-04T00:25:23;10.00;;;3.28;;
22764;SDS011;11549;50.852;3.816;2022-11-04T00:28:09;11.55;;;3.70;;
22764;SDS011;11549;50.852;3.816;2022-11-04T00:30:56;10.85;;;3.30;;
22764;SDS011;11549;50.852;3.816;2022-11-04T00:33:47;14.20;;;3.78;;
22764;SDS011;11549;50.852;3.816;2022-11-04T00:36:17;7.22;;;3.30;;
22764;SDS011;11549;50.852;3.816;2022-11-04T00:38:45;9.55;;;3.53;;
22764;SDS011;11549;50.852;3.816;2022-11-04T00:41:13;11.70;;;3.40;;
22764;SDS011;11549;50.852;3.816;2022-11-04T00:43:54;12.65;;;3.67;;
22764;SDS011;11549;50.852;3.816;2022-11-04T00:46:24;12.38;;;3.80;;
22764;SDS011;11549;50.852;3.816;2022-11-04T00:48:52;9.50;;;3.55;;
22764;SDS011;11549;50.852;3.816;2022-11-04T00:51:22;9.15;;;3.30;;
22764;SDS011;11549;50.852;3.816;2022-11-04T00:53:51;10.38;;;3.70;;
22764;SDS011;11549;50.852;3.816;2022-11-04T00:56:19;11.68;;;3.50;;
22764;SDS011;11549;50.852;3.816;2022-11-04T00:58:48;11.00;;;3.35;;
22764;SDS011;11549;50.852;3.816;2022-11-04T01:01:17;12.27;;;4.13;;
22764;SDS011;11549;50.852;3.816;2022-11-04T01:03:47;10.23;;;3.28;;
22764;SDS011;11549;50.852;3.816;2022-11-04T01:06:17;10.77;;;3.42;;
22764;SDS011;11549;50.852;3.816;2022-11-04T01:08:53;13.30;;;4.20;;
22764;SDS011;11549;50.852;3.816;2022-11-04T01:11:22;9.70;;;3.10;;
22764;SDS011;11549;50.852;3.816;2022-11-04T01:13:51;11.98;;;3.25;;
22764;SDS011;11549;50.852;3.816;2022-11-04T01:16:20;11.20;;;3.25;;
22764;SDS011;11549;50.852;3.816;2022-11-04T01:18:48;12.35;;;2.58;;
22764;SDS011;11549;50.852;3.816;2022-11-04T01:21:17;15.02;;;3.10;;
22764;SDS011;11549;50.852;3.816;2022-11-04T01:23:45;11.82;;;2.92;;
22764;SDS011;11549;50.852;3.816;2022-11-04T01:26:16;9.00;;;2.53;;
22764;SDS011;11549;50.852;3.816;2022-11-04T01:28:45;15.27;;;2.80;;
22764;SDS011;11549;50.852;3.816;2022-11-04T01:31:14;9.80;;;2.65;;
22764;SDS011;11549;50.852;3.816;2022-11-04T01:33:44;14.70;;;3.55;;
22764;SDS011;11549;50.852;3.816;2022-11-04T01:36:12;14.18;;;2.83;;
22764;SDS011;11549;50.852;3.816;2022-11-04T01:38:40;12.13;;;2.95;;
22764;SDS011;11549;50.852;3.816;2022-11-04T01:41:10;13.88;;;2.50;;
22764;SDS011;11549;50.852;3.816;2022-11-04T01:43:45;11.05;;;2.75;;
22764;SDS011;11549;50.852;3.816;2022-11-04T01:46:20;12.98;;;3.40;;
22764;SDS011;11549;50.852;3.816;2022-11-04T01:48:53;15.60;;;2.95;;
22764;SDS011;11549;50.852;3.816;2022-11-04T01:51:25;8.37;;;2.53;;
22764;SDS011;11549;50.852;3.816;2022-11-04T01:53:56;12.50;;;2.80;;
22764;SDS011;11549;50.852;3.816;2022-11-04T01:56:24;12.25;;;3.15;;
22764;SDS011;11549;50.852;3.816;2022-11-04T01:58:56;13.90;;;2.90;;
22764;SDS011;11549;50.852;3.816;2022-11-04T02:01:29;10.48;;;3.13;;
22764;SDS011;11549;50.852;3.816;2022-11-04T02:03:58;11.52;;;3.03;;
22764;SDS011;11549;50.852;3.816;2022-11-04T02:06:47;10.77;;;2.85;;
22764;SDS011;11549;50.852;3.816;2022-11-04T02:09:17;13.32;;;2.80;;
22764;SDS011;11549;50.852;3.816;2022-11-04T02:11:47;14.95;;;3.13;;
22764;SDS011;11549;50.852;3.816;2022-11-04T02:14:35;16.50;;;3.47;;
22764;SDS011;11549;50.852;3.816;2022-11-04T02:17:05;13.38;;;3.22;;
22764;SDS011;11549;50.852;3.816;2022-11-04T02:19:54;12.43;;;3.10;;
22764;SDS011;11549;50.852;3.816;2022-11-04T02:25:55;11.70;;;2.88;;
22764;SDS011;11549;50.852;3.816;2022-11-04T02:29:00;14.57;;;3.28;;
22764;SDS011;11549;50.852;3.816;2022-11-04T02:31:55;10.90;;;3.25;;
22764;SDS011;11549;50.852;3.816;2022-11-04T02:34:35;12.85;;;3.10;;
22764;SDS011;11549;50.852;3.816;2022-11-04T02:37:12;13.90;;;3.30;;
22764;SDS011;11549;50.852;3.816;2022-11-04T02:39:47;12.70;;;3.25;;
22764;SDS011;11549;50.852;3.816;2022-11-04T02:42:21;11.88;;;3.35;;
22764;SDS011;11549;50.852;3.816;2022-11-04T02:45:00;13.25;;;3.67;;
22764;SDS011;11549;50.852;3.816;2022-11-04T02:47:41;12.05;;;3.67;;
22764;SDS011;11549;50.852;3.816;2022-11-04T02:50:13;11.15;;;3.80;;
22764;SDS011;11549;50.852;3.816;2022-11-04T02:52:47;17.10;;;3.70;;
22764;SDS011;11549;50.852;3.816;2022-11-04T02:55:24;13.95;;;3.67;;
22764;SDS011;11549;50.852;3.816;2022-11-04T02:57:57;17.10;;;3.67;;
22764;SDS011;11549;50.852;3.816;2022-11-04T03:00:30;12.60;;;3.63;;
22764;SDS011;11549;50.852;3.816;2022-11-04T03:03:00;13.65;;;3.53;;
22764;SDS011;11549;50.852;3.816;2022-11-04T03:05:35;11.90;;;3.40;;
22764;SDS011;11549;50.852;3.816;2022-11-04T03:08:07;12.98;;;3.97;;
22764;SDS011;11549;50.852;3.816;2022-11-04T03:10:41;10.75;;;3.25;;
22764;SDS011;11549;50.852;3.816;2022-11-04T03:13:13;12.73;;;3.83;;
22764;SDS011;11549;50.852;3.816;2022-11-04T03:15:46;15.55;;;4.18;;
22764;SDS011;11549;50.852;3.816;2022-11-04T03:18:19;11.02;;;3.75;;
22764;SDS011;11549;50.852;3.816;2022-11-04T03:20:57;13.10;;;4.05;;
22764;SDS011;11549;50.852;3.816;2022-11-04T03:23:28;17.10;;;4.15;;
22764;SDS011;11549;50.852;3.816;2022-11-04T03:25:57;17.45;;;4.53;;
22764;SDS011;11549;50.852;3.816;2022-11-04T03:28:35;17.17;;;4.38;;
22764;SDS011;11549;50.852;3.816;2022-11-04T03:31:12;10.20;;;3.33;;
22764;SDS011;11549;50.852;3.816;2022-11-04T03:33:47;13.68;;;4.00;;
22764;SDS011;11549;50.852;3.816;2022-11-04T03:36:17;13.07;;;4.45;;
22764;SDS011;11549;50.852;3.816;2022-11-04T03:38:46;18.55;;;4.93;;
22764;SDS011;11549;50.852;3.816;2022-11-04T03:41:16;12.57;;;4.30;;
22764;SDS011;11549;50.852;3.816;2022-11-04T03:43:50;13.93;;;4.25;;
22764;SDS011;11549;50.852;3.816;2022-11-04T03:46:19;13.77;;;4.20;;
22764;SDS011;11549;50.852;3.816;2022-11-04T03:48:50;14.90;;;4.70;;
22764;SDS011;11549;50.852;3.816;2022-11-04T03:51:19;12.93;;;4.65;;
22764;SDS011;11549;50.852;3.816;2022-11-04T03:53:47;11.30;;;4.60;;
22764;SDS011;11549;50.852;3.816;2022-11-04T03:56:26;14.98;;;4.82;;
22764;SDS011;11549;50.852;3.816;2022-11-04T03:59:06;15.07;;;5.35;;
22764;SDS011;11549;50.852;3.816;2022-11-04T04:01:50;14.40;;;5.32;;
22764;SDS011;11549;50.852;3.816;2022-11-04T04:04:25;11.02;;;5.40;;
22764;SDS011;11549;50.852;3.816;2022-11-04T04:06:56;13.40;;;5.55;;
22764;SDS011;11549;50.852;3.816;2022-11-04T04:09:30;15.27;;;6.28;;
22764;SDS011;11549;50.852;3.816;2022-11-04T04:12:05;13.15;;;5.53;;
22764;SDS011;11549;50.852;3.816;2022-11-04T04:14:41;14.80;;;5.70;;
22764;SDS011;11549;50.852;3.816;2022-11-04T04:17:17;19.30;;;6.05;;
22764;SDS011;11549;50.852;3.816;2022-11-04T04:19:50;14.38;;;6.05;;
22764;SDS011;11549;50.852;3.816;2022-11-04T04:22:21;14.63;;;6.32;;
22764;SDS011;11549;50.852;3.816;2022-11-04T04:24:54;19.40;;;7.50;;
22764;SDS011;11549;50.852;3.816;2022-11-04T04:27:43;14.45;;;6.32;;
22764;SDS011;11549;50.852;3.816;2022-11-04T04:30:13;17.35;;;6.60;;
22764;SDS011;11549;50.852;3.816;2022-11-04T04:32:45;13.57;;;6.45;;
22764;SDS011;11549;50.852;3.816;2022-11-04T04:35:16;18.43;;;7.23;;
22764;SDS011;11549;50.852;3.816;2022-11-04T04:38:07;17.13;;;7.10;;
22764;SDS011;11549;50.852;3.816;2022-11-04T04:41:01;16.40;;;6.18;;
22764;SDS011;11549;50.852;3.816;2022-11-04T04:43:50;17.65;;;6.53;;
22764;SDS011;11549;50.852;3.816;2022-11-04T04:46:36;17.55;;;6.63;;
22764;SDS011;11549;50.852;3.816;2022-11-04T04:49:08;18.42;;;6.68;;
22764;SDS011;11549;50.852;3.816;2022-11-04T04:51:37;17.20;;;7.25;;
22764;SDS011;11549;50.852;3.816;2022-11-04T04:54:09;16.35;;;7.00;;
22764;SDS011;11549;50.852;3.816;2022-11-04T04:56:37;17.40;;;6.70;;
22764;SDS011;11549;50.852;3.816;2022-11-04T04:59:06;18.77;;;6.22;;
22764;SDS011;11549;50.852;3.816;2022-11-04T05:01:34;19.55;;;6.78;;
22764;SDS011;11549;50.852;3.816;2022-11-04T05:04:02;13.88;;;5.93;;
22764;SDS011;11549;50.852;3.816;2022-11-04T05:06:32;17.20;;;6.32;;
22764;SDS011;11549;50.852;3.816;2022-11-04T05:09:00;15.52;;;5.70;;
22764;SDS011;11549;50.852;3.816;2022-11-04T05:11:29;15.57;;;5.97;;
22764;SDS011;11549;50.852;3.816;2022-11-04T05:13:57;14.77;;;6.35;;
22764;SDS011;11549;50.852;3.816;2022-11-04T05:16:25;20.20;;;7.38;;
22764;SDS011;11549;50.852;3.816;2022-11-04T05:18:53;19.83;;;6.60;;
22764;SDS011;11549;50.852;3.816;2022-11-04T05:21:22;20.08;;;6.82;;
22764;SDS011;11549;50.852;3.816;2022-11-04T05:23:51;16.75;;;6.60;;
22764;SDS011;11549;50.852;3.816;2022-11-04T05:26:19;15.18;;;5.95;;
22764;SDS011;11549;50.852;3.816;2022-11-04T05:28:48;17.48;;;6.50;;
22764;SDS011;11549;50.852;3.816;2022-11-04T05:31:16;17.10;;;6.80;;
22764;SDS011;11549;50.852;3.816;2022-11-04T05:33:44;16.33;;;6.53;;
22764;SDS011;11549;50.852;3.816;2022-11-04T05:36:13;15.88;;;6.00;;
22764;SDS011;11549;50.852;3.816;2022-11-04T05:38:42;13.57;;;6.20;;
22764;SDS011;11549;50.852;3.816;2022-11-04T05:41:18;15.57;;;5.85;;
22764;SDS011;11549;50.852;3.816;2022-11-04T05:43:52;17.10;;;5.80;;
22764;SDS011;11549;50.852;3.816;2022-11-04T05:46:21;16.10;;;6.15;;
22764;SDS011;11549;50.852;3.816;2022-11-04T05:48:49;15.57;;;6.00;;
22764;SDS011;11549;50.852;3.816;2022-11-04T05:51:18;16.13;;;5.65;;
22764;SDS011;11549;50.852;3.816;2022-11-04T05:53:48;15.65;;;6.18;;
22764;SDS011;11549;50.852;3.816;2022-11-04T05:56:17;17.38;;;5.80;;
22764;SDS011;11549;50.852;3.816;2022-11-04T05:58:46;18.05;;;6.07;;
22764;SDS011;11549;50.852;3.816;2022-11-04T06:01:22;18.17;;;5.88;;
22764;SDS011;11549;50.852;3.816;2022-11-04T06:03:53;15.63;;;6.22;;
22764;SDS011;11549;50.852;3.816;2022-11-04T06:06:23;18.45;;;6.10;;
22764;SDS011;11549;50.852;3.816;2022-11-04T06:08:53;15.85;;;5.78;;
22764;SDS011;11549;50.852;3.816;2022-11-04T06:11:23;18.05;;;5.72;;
22764;SDS011;11549;50.852;3.816;2022-11-04T06:13:52;16.67;;;6.28;;
22764;SDS011;11549;50.852;3.816;2022-11-04T06:16:21;19.92;;;6.35;;
22764;SDS011;11549;50.852;3.816;2022-11-04T06:18:50;15.25;;;5.80;;
22764;SDS011;11549;50.852;3.816;2022-11-04T06:21:23;12.80;;;5.03;;
22764;SDS011;11549;50.852;3.816;2022-11-04T06:23:54;15.85;;;5.43;;
22764;SDS011;11549;50.852;3.816;2022-11-04T06:26:25;13.02;;;5.07;;
22764;SDS011;11549;50.852;3.816;2022-11-04T06:28:56;16.83;;;5.68;;
22764;SDS011;11549;50.852;3.816;2022-11-04T06:31:24;19.95;;;5.57;;
22764;SDS011;11549;50.852;3.816;2022-11-04T06:33:53;21.05;;;6.03;;
22764;SDS011;11549;50.852;3.816;2022-11-04T06:36:21;15.30;;;5.05;;
22764;SDS011;11549;50.852;3.816;2022-11-04T06:38:49;16.73;;;5.78;;
22764;SDS011;11549;50.852;3.816;2022-11-04T06:41:17;15.80;;;5.63;;
22764;SDS011;11549;50.852;3.816;2022-11-04T06:43:47;22.33;;;5.97;;
22764;SDS011;11549;50.852;3.816;2022-11-04T06:46:25;16.17;;;5.32;;
22764;SDS011;11549;50.852;3.816;2022-11-04T06:48:56;14.10;;;4.97;;
22764;SDS011;11549;50.852;3.816;2022-11-04T06:51:24;16.20;;;5.10;;
22764;SDS011;11549;50.852;3.816;2022-11-04T06:53:52;17.08;;;5.60;;
22764;SDS011;11549;50.852;3.816;2022-11-04T06:56:21;19.17;;;5.53;;
22764;SDS011;11549;50.852;3.816;2022-11-04T06:58:51;20.05;;;5.38;;
22764;SDS011;11549;50.852;3.816;2022-11-04T07:01:21;14.02;;;5.63;;
22764;SDS011;11549;50.852;3.816;2022-11-04T07:03:52;13.85;;;4.85;;
22764;SDS011;11549;50.852;3.816;2022-11-04T07:06:22;14.10;;;5.10;;
22764;SDS011;11549;50.852;3.816;2022-11-04T07:08:52;15.32;;;4.97;;
22764;SDS011;11549;50.852;3.816;2022-11-04T07:11:20;14.35;;;5.55;;
22764;SDS011;11549;50.852;3.816;2022-11-04T07:13:51;12.07;;;4.70;;
22764;SDS011;11549;50.852;3.816;2022-11-04T07:16:20;17.08;;;4.90;;
22764;SDS011;11549;50.852;3.816;2022-11-04T07:18:48;13.02;;;4.63;;
22764;SDS011;11549;50.852;3.816;2022-11-04T07:21:17;12.23;;;4.70;;
22764;SDS011;11549;50.852;3.816;2022-11-04T07:23:45;17.50;;;5.50;;
22764;SDS011;11549;50.852;3.816;2022-11-04T07:26:13;13.07;;;4.70;;
22764;SDS011;11549;50.852;3.816;2022-11-04T07:28:42;14.15;;;5.55;;
22764;SDS011;11549;50.852;3.816;2022-11-04T07:31:12;14.23;;;4.95;;
22764;SDS011;11549;50.852;3.816;2022-11-04T07:33:41;12.68;;;5.57;;
22764;SDS011;11549;50.852;3.816;2022-11-04T07:36:10;10.48;;;5.50;;
22764;SDS011;11549;50.852;3.816;2022-11-04T07:38:39;15.50;;;5.78;;
22764;SDS011;11549;50.852;3.816;2022-11-04T07:41:07;15.07;;;5.68;;
22764;SDS011;11549;50.852;3.816;2022-11-04T07:43:36;16.73;;;5.47;;
22764;SDS011;11549;50.852;3.816;2022-11-04T07:46:05;13.40;;;5.35;;
22764;SDS011;11549;50.852;3.816;2022-11-04T07:48:37;12.77;;;5.30;;
22764;SDS011;11549;50.852;3.816;2022-11-04T07:51:06;15.88;;;5.20;;
22764;SDS011;11549;50.852;3.816;2022-11-04T07:53:35;10.60;;;4.45;;
22764;SDS011;11549;50.852;3.816;2022-11-04T07:56:04;8.90;;;4.20;;
22764;SDS011;11549;50.852;3.816;2022-11-04T07:58:33;11.32;;;4.28;;
22764;SDS011;11549;50.852;3.816;2022-11-04T08:01:02;13.43;;;4.85;;
22764;SDS011;11549;50.852;3.816;2022-11-04T08:03:32;9.02;;;4.25;;
22764;SDS011;11549;50.852;3.816;2022-11-04T08:06:04;9.13;;;4.20;;
22764;SDS011;11549;50.852;3.816;2022-11-04T08:08:33;9.57;;;4.57;;
22764;SDS011;11549;50.852;3.816;2022-11-04T08:11:03;11.63;;;4.20;;
22764;SDS011;11549;50.852;3.816;2022-11-04T08:13:38;13.75;;;4.72;;
22764;SDS011;11549;50.852;3.816;2022-11-04T08:16:07;8.73;;;3.72;;
22764;SDS011;11549;50.852;3.816;2022-11-04T08:18:38;11.20;;;4.20;;
22764;SDS011;11549;50.852;3.816;2022-11-04T08:21:09;10.20;;;4.93;;
22764;SDS011;11549;50.852;3.816;2022-11-04T08:23:38;9.27;;;4.30;;
22764;SDS011;11549;50.852;3.816;2022-11-04T08:26:07;7.97;;;4.00;;
22764;SDS011;11549;50.852;3.816;2022-11-04T08:28:36;12.60;;;4.32;;
22764;SDS011;11549;50.852;3.816;2022-11-04T08:31:06;10.10;;;4.40;;
22764;SDS011;11549;50.852;3.816;2022-11-04T08:33:35;13.02;;;4.75;;
22764;SDS011;11549;50.852;3.816;2022-11-04T08:36:05;7.03;;;3.95;;
22764;SDS011;11549;50.852;3.816;2022-11-04T08:38:40;11.07;;;4.35;;
22764;SDS011;11549;50.852;3.816;2022-11-04T08:41:09;9.75;;;4.68;;
22764;SDS011;11549;50.852;3.816;2022-11-04T08:43:38;9.80;;;3.92;;
22764;SDS011;11549;50.852;3.816;2022-11-04T08:46:07;11.57;;;4.60;;
22764;SDS011;11549;50.852;3.816;2022-11-04T08:48:37;14.63;;;6.60;;
22764;SDS011;11549;50.852;3.816;2022-11-04T08:51:09;12.98;;;5.88;;
22764;SDS011;11549;50.852;3.816;2022-11-04T08:53:41;11.32;;;6.10;;
22764;SDS011;11549;50.852;3.816;2022-11-04T08:56:11;11.57;;;6.00;;
22764;SDS011;11549;50.852;3.816;2022-11-04T08:58:40;18.83;;;11.15;;
22764;SDS011;11549;50.852;3.816;2022-11-04T09:01:08;22.15;;;11.75;;
22764;SDS011;11549;50.852;3.816;2022-11-04T09:03:38;22.55;;;11.05;;
22764;SDS011;11549;50.852;3.816;2022-11-04T09:06:08;16.60;;;8.90;;
22764;SDS011;11549;50.852;3.816;2022-11-04T09:08:37;18.17;;;8.10;;
22764;SDS011;11549;50.852;3.816;2022-11-04T09:11:08;17.60;;;6.78;;
22764;SDS011;11549;50.852;3.816;2022-11-04T09:13:37;13.85;;;6.18;;
22764;SDS011;11549;50.852;3.816;2022-11-04T09:16:06;15.00;;;6.07;;
22764;SDS011;11549;50.852;3.816;2022-11-04T09:18:37;18.00;;;6.68;;
22764;SDS011;11549;50.852;3.816;2022-11-04T09:21:06;20.02;;;6.28;;
22764;SDS011;11549;50.852;3.816;2022-11-04T09:23:35;15.73;;;5.85;;
22764;SDS011;11549;50.852;3.816;2022-11-04T09:26:07;20.30;;;6.20;;
22764;SDS011;11549;50.852;3.816;2022-11-04T09:28:39;19.85;;;5.78;;
22764;SDS011;11549;50.852;3.816;2022-11-04T09:31:08;17.83;;;5.85;;
22764;SDS011;11549;50.852;3.816;2022-11-04T09:33:38;15.68;;;6.00;;
22764;SDS011;11549;50.852;3.816;2022-11-04T09:36:07;13.13;;;5.50;;
22764;SDS011;11549;50.852;3.816;2022-11-04T09:38:37;16.98;;;5.72;;
22764;SDS011;11549;50.852;3.816;2022-11-04T09:41:10;12.80;;;5.20;;
22764;SDS011;11549;50.852;3.816;2022-11-04T09:44:08;21.77;;;5.80;;
22764;SDS011;11549;50.852;3.816;2022-11-04T09:46:43;14.60;;;6.10;;
22764;SDS011;11549;50.852;3.816;2022-11-04T09:49:14;14.43;;;5.90;;
22764;SDS011;11549;50.852;3.816;2022-11-04T09:51:43;15.43;;;6.13;;
22764;SDS011;11549;50.852;3.816;2022-11-04T09:54:22;13.50;;;5.70;;
22764;SDS011;11549;50.852;3.816;2022-11-04T09:56:54;12.93;;;5.95;;
22764;SDS011;11549;50.852;3.816;2022-11-04T09:59:26;15.10;;;6.68;;
22764;SDS011;11549;50.852;3.816;2022-11-04T10:02:00;12.48;;;6.07;;
22764;SDS011;11549;50.852;3.816;2022-11-04T10:04:51;17.40;;;6.65;;
22764;SDS011;11549;50.852;3.816;2022-11-04T10:10:22;15.82;;;6.40;;
22764;SDS011;11549;50.852;3.816;2022-11-04T10:13:12;13.65;;;6.30;;
22764;SDS011;11549;50.852;3.816;2022-11-04T10:18:46;14.20;;;6.22;;
22764;SDS011;11549;50.852;3.816;2022-11-04T10:21:25;15.48;;;6.40;;
22764;SDS011;11549;50.852;3.816;2022-11-04T10:24:06;14.38;;;6.18;;
22764;SDS011;11549;50.852;3.816;2022-11-04T10:26:44;12.32;;;5.68;;
22764;SDS011;11549;50.852;3.816;2022-11-04T10:29:18;13.77;;;5.60;;
22764;SDS011;11549;50.852;3.816;2022-11-04T10:31:55;15.02;;;6.05;;
22764;SDS011;11549;50.852;3.816;2022-11-04T10:34:28;12.02;;;6.10;;
22764;SDS011;11549;50.852;3.816;2022-11-04T10:37:08;14.75;;;6.38;;
22764;SDS011;11549;50.852;3.816;2022-11-04T10:39:41;13.27;;;6.05;;
22764;SDS011;11549;50.852;3.816;2022-11-04T10:42:11;12.57;;;6.53;;
22764;SDS011;11549;50.852;3.816;2022-11-04T10:44:43;15.43;;;7.25;;
22764;SDS011;11549;50.852;3.816;2022-11-04T10:47:15;17.25;;;7.60;;
22764;SDS011;11549;50.852;3.816;2022-11-04T10:49:55;13.18;;;7.18;;
22764;SDS011;11549;50.852;3.816;2022-11-04T10:52:49;12.65;;;7.32;;
22764;SDS011;11549;50.852;3.816;2022-11-04T10:55:29;16.48;;;7.53;;
22764;SDS011;11549;50.852;3.816;2022-11-04T10:58:02;14.93;;;7.90;;
22764;SDS011;11549;50.852;3.816;2022-11-04T11:00:40;15.52;;;8.20;;
22764;SDS011;11549;50.852;3.816;2022-11-04T11:03:21;15.27;;;8.80;;
22764;SDS011;11549;50.852;3.816;2022-11-04T11:05:51;16.27;;;8.07;;
22764;SDS011;11549;50.852;3.816;2022-11-04T11:08:28;16.13;;;7.95;;
22764;SDS011;11549;50.852;3.816;2022-11-04T11:10:59;14.55;;;8.07;;
22764;SDS011;11549;50.852;3.816;2022-11-04T11:13:33;17.17;;;9.50;;
22764;SDS011;11549;50.852;3.816;2022-11-04T11:16:05;17.58;;;9.48;;
22764;SDS011;11549;50.852;3.816;2022-11-04T11:18:37;19.70;;;10.02;;
22764;SDS011;11549;50.852;3.816;2022-11-04T11:21:09;19.92;;;10.30;;
22764;SDS011;11549;50.852;3.816;2022-11-04T11:23:40;21.55;;;11.10;;
22764;SDS011;11549;50.852;3.816;2022-11-04T11:26:11;19.77;;;12.68;;
22764;SDS011;11549;50.852;3.816;2022-11-04T11:28:46;17.95;;;11.43;;
22764;SDS011;11549;50.852;3.816;2022-11-04T11:31:25;20.75;;;12.23;;
22764;SDS011;11549;50.852;3.816;2022-11-04T11:34:03;18.05;;;11.65;;
22764;SDS011;11549;50.852;3.816;2022-11-04T11:36:33;19.38;;;10.88;;
22764;SDS011;11549;50.852;3.816;2022-11-04T11:39:05;18.95;;;11.65;;
22764;SDS011;11549;50.852;3.816;2022-11-04T11:41:48;17.48;;;10.75;;
22764;SDS011;11549;50.852;3.816;2022-11-04T11:44:22;18.83;;;11.45;;
22764;SDS011;11549;50.852;3.816;2022-11-04T11:46:59;16.05;;;12.07;;
22764;SDS011;11549;50.852;3.816;2022-11-04T11:49:30;20.25;;;12.60;;
22764;SDS011;11549;50.852;3.816;2022-11-04T11:54:43;25.17;;;15.52;;
22764;SDS011;11549;50.852;3.816;2022-11-04T11:57:20;27.05;;;18.80;;
22764;SDS011;11549;50.852;3.816;2022-11-04T11:59:59;25.27;;;19.55;;
22764;SDS011;11549;50.852;3.816;2022-11-04T12:02:57;27.08;;;19.17;;
22764;SDS011;11549;50.852;3.816;2022-11-04T12:05:29;25.85;;;18.30;;
22764;SDS011;11549;50.852;3.816;2022-11-04T12:08:38;25.75;;;18.52;;
22764;SDS011;11549;50.852;3.816;2022-11-04T12:11:40;26.95;;;18.30;;
22764;SDS011;11549;50.852;3.816;2022-11-04T12:14:23;27.63;;;18.75;;
22764;SDS011;11549;50.852;3.816;2022-11-04T12:17:02;25.67;;;17.10;;
22764;SDS011;11549;50.852;3.816;2022-11-04T12:19:47;21.98;;;16.25;;
22764;SDS011;11549;50.852;3.816;2022-11-04T12:22:23;24.27;;;16.85;;
22764;SDS011;11549;50.852;3.816;2022-11-04T12:25:04;23.73;;;16.77;;
22764;SDS011;11549;50.852;3.816;2022-11-04T12:27:44;27.83;;;16.55;;
22764;SDS011;11549;50.852;3.816;2022-11-04T12:30:18;20.08;;;16.27;;
22764;SDS011;11549;50.852;3.816;2022-11-04T12:33:02;25.95;;;17.00;;
22764;SDS011;11549;50.852;3.816;2022-11-04T12:35:50;25.02;;;16.85;;
22764;SDS011;11549;50.852;3.816;2022-11-04T12:38:32;23.60;;;16.92;;
22764;SDS011;11549;50.852;3.816;2022-11-04T12:41:11;24.05;;;17.38;;
22764;SDS011;11549;50.852;3.816;2022-11-04T12:44:06;23.95;;;17.98;;
22764;SDS011;11549;50.852;3.816;2022-11-04T12:46:44;23.52;;;17.48;;
22764;SDS011;11549;50.852;3.816;2022-11-04T12:49:27;20.90;;;15.45;;
22764;SDS011;11549;50.852;3.816;2022-11-04T12:52:08;19.65;;;13.93;;
22764;SDS011;11549;50.852;3.816;2022-11-04T12:54:50;19.13;;;14.25;;
22764;SDS011;11549;50.852;3.816;2022-11-04T12:57:32;21.77;;;15.57;;
22764;SDS011;11549;50.852;3.816;2022-11-04T13:00:09;21.15;;;15.18;;
22764;SDS011;11549;50.852;3.816;2022-11-04T13:02:42;16.33;;;9.85;;
22764;SDS011;11549;50.852;3.816;2022-11-04T13:05:19;14.88;;;9.27;;
22764;SDS011;11549;50.852;3.816;2022-11-04T13:07:57;11.18;;;8.00;;
22764;SDS011;11549;50.852;3.816;2022-11-04T13:10:39;11.18;;;6.88;;
22764;SDS011;11549;50.852;3.816;2022-11-04T13:13:13;7.30;;;4.70;;
22764;SDS011;11549;50.852;3.816;2022-11-04T13:15:45;8.63;;;4.55;;
22764;SDS011;11549;50.852;3.816;2022-11-04T13:18:17;9.13;;;4.63;;
22764;SDS011;11549;50.852;3.816;2022-11-04T13:20:49;7.68;;;3.90;;
22764;SDS011;11549;50.852;3.816;2022-11-04T13:23:30;7.05;;;3.70;;
22764;SDS011;11549;50.852;3.816;2022-11-04T13:26:05;6.70;;;3.42;;
22764;SDS011;11549;50.852;3.816;2022-11-04T13:28:37;7.20;;;3.38;;
22764;SDS011;11549;50.852;3.816;2022-11-04T13:31:08;9.10;;;3.50;;
22764;SDS011;11549;50.852;3.816;2022-11-04T13:33:42;6.10;;;3.35;;
22764;SDS011;11549;50.852;3.816;2022-11-04T13:36:20;6.22;;;3.70;;
22764;SDS011;11549;50.852;3.816;2022-11-04T13:38:56;7.45;;;3.60;;
22764;SDS011;11549;50.852;3.816;2022-11-04T13:41:39;7.63;;;3.42;;
22764;SDS011;11549;50.852;3.816;2022-11-04T13:44:29;6.97;;;3.17;;
22764;SDS011;11549;50.852;3.816;2022-11-04T13:47:02;5.70;;;3.10;;
22764;SDS011;11549;50.852;3.816;2022-11-04T13:49:47;6.05;;;2.83;;
22764;SDS011;11549;50.852;3.816;2022-11-04T13:52:16;5.75;;;2.30;;
22764;SDS011;11549;50.852;3.816;2022-11-04T13:54:50;5.53;;;2.25;;
22764;SDS011;11549;50.852;3.816;2022-11-04T13:57:21;4.55;;;1.70;;
22764;SDS011;11549;50.852;3.816;2022-11-04T14:00:05;5.47;;;1.88;;
22764;SDS011;11549;50.852;3.816;2022-11-04T14:02:49;5.18;;;1.92;;
22764;SDS011;11549;50.852;3.816;2022-11-04T14:08:13;5.82;;;1.75;;
22764;SDS011;11549;50.852;3.816;2022-11-04T14:10:44;7.30;;;1.80;;
22764;SDS011;11549;50.852;3.816;2022-11-04T14:13:48;4.50;;;1.95;;
22764;SDS011;11549;50.852;3.816;2022-11-04T14:16:36;5.90;;;2.10;;
22764;SDS011;11549;50.852;3.816;2022-11-04T14:22:28;5.80;;;1.67;;
22764;SDS011;11549;50.852;3.816;2022-11-04T14:25:03;5.95;;;1.40;;
22764;SDS011;11549;50.852;3.816;2022-11-04T14:27:48;1.58;;;0.90;;
22764;SDS011;11549;50.852;3.816;2022-11-04T14:30:28;3.08;;;1.00;;
22764;SDS011;11549;50.852;3.816;2022-11-04T14:33:01;3.88;;;1.10;;
22764;SDS011;11549;50.852;3.816;2022-11-04T14:35:32;5.93;;;1.10;;
22764;SDS011;11549;50.852;3.816;2022-11-04T14:38:05;3.90;;;1.17;;
22764;SDS011;11549;50.852;3.816;2022-11-04T14:40:46;5.88;;;1.42;;
22764;SDS011;11549;50.852;3.816;2022-11-04T14:43:21;6.50;;;1.58;;
22764;SDS011;11549;50.852;3.816;2022-11-04T14:45:58;5.80;;;2.15;;
22764;SDS011;11549;50.852;3.816;2022-11-04T14:48:28;6.10;;;1.50;;
22764;SDS011;11549;50.852;3.816;2022-11-04T14:50:57;8.20;;;2.80;;
22764;SDS011;11549;50.852;3.816;2022-11-04T14:53:27;7.63;;;2.15;;
22764;SDS011;11549;50.852;3.816;2022-11-04T14:56:03;4.55;;;1.60;;
22764;SDS011;11549;50.852;3.816;2022-11-04T14:58:35;6.00;;;1.50;;
22764;SDS011;11549;50.852;3.816;2022-11-04T15:01:04;7.60;;;1.60;;
22764;SDS011;11549;50.852;3.816;2022-11-04T15:03:37;4.18;;;1.30;;
22764;SDS011;11549;50.852;3.816;2022-11-04T15:06:27;5.32;;;1.33;;
22764;SDS011;11549;50.852;3.816;2022-11-04T15:09:17;6.72;;;1.83;;
22764;SDS011;11549;50.852;3.816;2022-11-04T15:11:47;6.80;;;2.05;;
22764;SDS011;11549;50.852;3.816;2022-11-04T15:14:34;5.30;;;1.70;;
22764;SDS011;11549;50.852;3.816;2022-11-04T15:17:04;5.18;;;1.45;;
22764;SDS011;11549;50.852;3.816;2022-11-04T15:19:32;7.63;;;2.70;;
22764;SDS011;11549;50.852;3.816;2022-11-04T15:22:02;7.65;;;3.47;;
22764;SDS011;11549;50.852;3.816;2022-11-04T15:24:33;6.78;;;2.42;;
22764;SDS011;11549;50.852;3.816;2022-11-04T15:27:02;7.45;;;2.55;;
22764;SDS011;11549;50.852;3.816;2022-11-04T15:29:34;7.93;;;3.40;;
22764;SDS011;11549;50.852;3.816;2022-11-04T15:32:03;5.80;;;2.17;;
22764;SDS011;11549;50.852;3.816;2022-11-04T15:34:32;6.30;;;2.92;;